sensor_id;sensor_type;location;lat;lon;timestamp;pressure;altitude;pressure_sealevel;temperature;humidity
12801;BME280;6464;42.494;27.470;2023-08-06T04:01:45;96939.16;;;23.52;100.00
12801;BME280;6464;42.494;27.470;2023-08-06T04:04:29;96954.25;;;23.47;100.00
12801;BME280;6464;42.494;27.470;2023-08-06T04:07:22;96947.25;;;23.59;100.00
12801;BME280;6464;42.494;27.470;2023-08-06T04:10:14;96977.50;;;23.68;100.00
12801;BME280;6464;42.494;27.470;2023-08-06T04:13:11;96962.53;;;23.52;100.00
12801;BME280;6464;42.494;27.470;2023-08-06T04:16:01;96962.53;;;23.45;100.00
12801;BME280;6464;42.494;27.470;2023-08-06T04:25:11;97037.72;;;23.73;100.00
12801;BME280;6464;42.494;27.470;2023-08-06T04:27:53;96997.75;;;23.64;100.00
12801;BME280;6464;42.494;27.470;2023-08-06T04:30:48;96979.75;;;23.64;100.00
12801;BME280;6464;42.494;27.470;2023-08-06T04:33:44;97015.59;;;23.71;100.00
12801;BME280;6464;42.494;27.470;2023-08-06T04:43:33;96944.38;;;23.60;100.00
12801;BME280;6464;42.494;27.470;2023-08-06T04:46:45;97065.41;;;24.15;100.00
12801;BME280;6464;42.494;27.470;2023-08-06T04:49:15;97004.84;;;23.71;100.00
12801;BME280;6464;42.494;27.470;2023-08-06T04:51:49;97073.88;;;24.12;100.00
12801;BME280;6464;42.494;27.470;2023-08-06T04:54:27;97036.19;;;24.05;100.00
12801;BME280;6464;42.494;27.470;2023-08-06T04:57:08;96996.00;;;23.91;100.00
12801;BME280;6464;42.494;27.470;2023-08-06T05:00:13;97056.94;;;24.25;100.00
12801;BME280;6464;42.494;27.470;2023-08-06T05:03:28;97078.13;;;24.54;100.00
12801;BME280;6464;42.494;27.470;2023-08-06T05:05:59;97048.25;;;24.29;100.00
12801;BME280;6464;42.494;27.470;2023-08-06T05:08:45;97084.38;;;24.61;100.00
12801;BME280;6464;42.494;27.470;2023-08-06T05:11:12;97065.00;;;24.31;100.00
12801;BME280;6464;42.494;27.470;2023-08-06T05:13:39;97129.75;;;24.71;100.00
12801;BME280;6464;42.494;27.470;2023-08-06T05:16:07;97079.78;;;24.42;100.00
12801;BME280;6464;42.494;27.470;2023-08-06T05:18:34;97146.53;;;24.73;100.00
12801;BME280;6464;42.494;27.470;2023-08-06T05:21:03;97077.84;;;24.29;100.00
12801;BME280;6464;42.494;27.470;2023-08-06T05:23:32;97167.47;;;24.78;100.00
12801;BME280;6464;42.494;27.470;2023-08-06T05:25:59;97130.16;;;24.68;100.00
12801;BME280;6464;42.494;27.470;2023-08-06T05:28:26;97189.47;;;24.88;100.00
12801;BME280;6464;42.494;27.470;2023-08-06T05:30:53;97188.03;;;24.99;100.00
12801;BME280;6464;42.494;27.470;2023-08-06T05:33:22;97203.63;;;25.10;100.00
12801;BME280;6464;42.494;27.470;2023-08-06T05:35:49;97173.31;;;25.01;100.00
12801;BME280;6464;42.494;27.470;2023-08-06T05:38:16;97210.06;;;25.22;100.00
12801;BME280;6464;42.494;27.470;2023-08-06T05:40:43;97223.97;;;25.39;100.00
12801;BME280;6464;42.494;27.470;2023-08-06T05:43:10;97235.97;;;25.43;100.00
12801;BME280;6464;42.494;27.470;2023-08-06T05:45:37;97251.97;;;25.45;100.00
12801;BME280;6464;42.494;27.470;2023-08-06T05:48:04;97262.56;;;25.40;100.00
12801;BME280;6464;42.494;27.470;2023-08-06T05:50:32;97257.56;;;25.36;100.00
12801;BME280;6464;42.494;27.470;2023-08-06T05:52:59;97261.31;;;25.55;100.00
12801;BME280;6464;42.494;27.470;2023-08-06T05:55:26;97251.19;;;25.77;100.00
12801;BME280;6464;42.494;27.470;2023-08-06T05:57:53;97248.84;;;25.61;100.00
12801;BME280;6464;42.494;27.470;2023-08-06T06:00:21;97280.41;;;25.74;100.00
12801;BME280;6464;42.494;27.470;2023-08-06T06:02:48;97283.09;;;25.74;100.00
12801;BME280;6464;42.494;27.470;2023-08-06T06:05:15;97283.31;;;25.99;100.00
12801;BME280;6464;42.494;27.470;2023-08-06T06:07:43;97304.91;;;26.12;100.00
12801;BME280;6464;42.494;27.470;2023-08-06T06:10:10;97305.97;;;25.78;100.00
12801;BME280;6464;42.494;27.470;2023-08-06T06:12:38;97327.31;;;26.19;100.00
12801;BME280;6464;42.494;27.470;2023-08-06T06:15:06;97350.38;;;26.28;100.00
12801;BME280;6464;42.494;27.470;2023-08-06T06:17:33;97374.25;;;26.31;100.00
12801;BME280;6464;42.494;27.470;2023-08-06T06:20:00;97376.13;;;26.37;100.00
12801;BME280;6464;42.494;27.470;2023-08-06T06:22:28;97386.31;;;26.49;100.00
12801;BME280;6464;42.494;27.470;2023-08-06T06:24:56;97404.19;;;26.50;100.00
12801;BME280;6464;42.494;27.470;2023-08-06T06:27:23;97425.78;;;26.36;100.00
12801;BME280;6464;42.494;27.470;2023-08-06T06:29:50;97424.34;;;26.40;100.00
12801;BME280;6464;42.494;27.470;2023-08-06T06:32:17;97422.03;;;26.37;100.00
12801;BME280;6464;42.494;27.470;2023-08-06T06:34:44;97424.13;;;26.49;100.00
12801;BME280;6464;42.494;27.470;2023-08-06T06:37:11;97411.44;;;26.23;100.00
12801;BME280;6464;42.494;27.470;2023-08-06T06:39:38;97461.34;;;26.47;100.00
12801;BME280;6464;42.494;27.470;2023-08-06T06:42:07;97460.06;;;26.49;100.00
12801;BME280;6464;42.494;27.470;2023-08-06T06:44:33;97468.19;;;26.69;100.00
12801;BME280;6464;42.494;27.470;2023-08-06T06:47:00;97490.41;;;26.84;100.00
12801;BME280;6464;42.494;27.470;2023-08-06T06:49:27;97494.34;;;26.82;100.00
12801;BME280;6464;42.494;27.470;2023-08-06T06:51:54;97487.72;;;26.71;100.00
12801;BME280;6464;42.494;27.470;2023-08-06T06:54:23;97493.13;;;26.71;100.00
12801;BME280;6464;42.494;27.470;2023-08-06T06:56:50;97487.06;;;26.82;100.00
12801;BME280;6464;42.494;27.470;2023-08-06T06:59:18;97513.88;;;26.97;100.00
12801;BME280;6464;42.494;27.470;2023-08-06T07:01:45;97514.94;;;26.76;100.00
12801;BME280;6464;42.494;27.470;2023-08-06T07:04:12;97511.84;;;26.79;100.00
12801;BME280;6464;42.494;27.470;2023-08-06T07:06:39;97484.75;;;27.06;100.00
12801;BME280;6464;42.494;27.470;2023-08-06T07:09:06;97476.47;;;26.94;100.00
12801;BME280;6464;42.494;27.470;2023-08-06T07:11:33;97499.72;;;27.02;100.00
12801;BME280;6464;42.494;27.470;2023-08-06T07:13:59;97507.66;;;27.10;100.00
12801;BME280;6464;42.494;27.470;2023-08-06T07:16:28;97519.50;;;27.09;100.00
12801;BME280;6464;42.494;27.470;2023-08-06T07:18:55;97518.19;;;27.31;100.00
12801;BME280;6464;42.494;27.470;2023-08-06T07:21:22;97495.19;;;27.09;100.00
12801;BME280;6464;42.494;27.470;2023-08-06T07:23:49;97552.09;;;27.40;100.00
12801;BME280;6464;42.494;27.470;2023-08-06T07:26:16;97572.47;;;27.50;100.00
12801;BME280;6464;42.494;27.470;2023-08-06T07:28:43;97597.03;;;27.48;100.00
12801;BME280;6464;42.494;27.470;2023-08-06T07:31:10;97611.56;;;27.67;100.00
12801;BME280;6464;42.494;27.470;2023-08-06T07:33:38;97595.81;;;27.37;100.00
12801;BME280;6464;42.494;27.470;2023-08-06T07:36:09;97645.97;;;27.40;100.00
12801;BME280;6464;42.494;27.470;2023-08-06T07:38:36;97642.41;;;27.46;100.00
12801;BME280;6464;42.494;27.470;2023-08-06T07:41:03;97633.22;;;27.74;100.00
12801;BME280;6464;42.494;27.470;2023-08-06T07:43:30;97651.97;;;27.55;100.00
12801;BME280;6464;42.494;27.470;2023-08-06T07:45:58;97637.38;;;27.76;100.00
12801;BME280;6464;42.494;27.470;2023-08-06T07:48:25;97621.56;;;27.73;100.00
12801;BME280;6464;42.494;27.470;2023-08-06T07:50:54;97503.50;;;26.81;100.00
12801;BME280;6464;42.494;27.470;2023-08-06T07:53:21;97619.69;;;27.74;100.00
12801;BME280;6464;42.494;27.470;2023-08-06T07:55:50;97620.25;;;27.96;100.00
12801;BME280;6464;42.494;27.470;2023-08-06T07:58:17;97626.84;;;28.06;100.00
12801;BME280;6464;42.494;27.470;2023-08-06T08:00:44;97644.25;;;28.24;100.00
12801;BME280;6464;42.494;27.470;2023-08-06T08:03:11;97643.69;;;28.15;100.00
12801;BME280;6464;42.494;27.470;2023-08-06T08:05:39;97680.53;;;28.29;100.00
12801;BME280;6464;42.494;27.470;2023-08-06T08:08:07;97668.84;;;28.35;100.00
12801;BME280;6464;42.494;27.470;2023-08-06T08:10:34;97665.47;;;28.33;100.00
12801;BME280;6464;42.494;27.470;2023-08-06T08:13:01;97696.84;;;28.16;100.00
12801;BME280;6464;42.494;27.470;2023-08-06T08:15:30;97653.97;;;27.93;100.00
12801;BME280;6464;42.494;27.470;2023-08-06T08:17:57;97707.44;;;28.17;100.00
12801;BME280;6464;42.494;27.470;2023-08-06T08:20:24;97685.34;;;28.21;100.00
12801;BME280;6464;42.494;27.470;2023-08-06T08:22:53;97686.06;;;28.54;100.00
12801;BME280;6464;42.494;27.470;2023-08-06T08:25:21;97691.53;;;28.41;100.00
12801;BME280;6464;42.494;27.470;2023-08-06T08:27:48;97709.09;;;28.38;100.00
12801;BME280;6464;42.494;27.470;2023-08-06T08:30:15;97679.91;;;28.34;100.00
12801;BME280;6464;42.494;27.470;2023-08-06T08:32:41;97681.53;;;28.41;100.00
12801;BME280;6464;42.494;27.470;2023-08-06T08:35:08;97672.50;;;28.54;100.00
12801;BME280;6464;42.494;27.470;2023-08-06T08:37:38;97664.97;;;28.56;100.00
12801;BME280;6464;42.494;27.470;2023-08-06T08:40:06;97646.72;;;28.32;100.00
12801;BME280;6464;42.494;27.470;2023-08-06T08:42:35;97670.75;;;28.66;100.00
12801;BME280;6464;42.494;27.470;2023-08-06T08:45:04;97669.66;;;28.74;100.00
12801;BME280;6464;42.494;27.470;2023-08-06T08:47:33;97693.47;;;28.72;100.00
12801;BME280;6464;42.494;27.470;2023-08-06T08:50:00;97683.16;;;28.87;100.00
12801;BME280;6464;42.494;27.470;2023-08-06T08:52:28;97679.44;;;29.13;100.00
12801;BME280;6464;42.494;27.470;2023-08-06T08:54:57;97684.28;;;29.05;100.00
12801;BME280;6464;42.494;27.470;2023-08-06T08:57:24;97625.47;;;28.74;100.00
12801;BME280;6464;42.494;27.470;2023-08-06T08:59:52;97686.16;;;29.11;100.00
12801;BME280;6464;42.494;27.470;2023-08-06T09:02:21;97690.06;;;29.15;100.00
12801;BME280;6464;42.494;27.470;2023-08-06T09:04:48;97680.91;;;29.09;100.00
12801;BME280;6464;42.494;27.470;2023-08-06T09:07:18;97651.72;;;29.05;100.00
12801;BME280;6464;42.494;27.470;2023-08-06T09:09:47;97676.66;;;29.20;100.00
12801;BME280;6464;42.494;27.470;2023-08-06T09:12:16;97663.25;;;29.25;100.00
12801;BME280;6464;42.494;27.470;2023-08-06T09:14:44;97666.19;;;29.24;100.00
12801;BME280;6464;42.494;27.470;2023-08-06T09:17:12;97667.66;;;29.44;100.00
12801;BME280;6464;42.494;27.470;2023-08-06T09:19:42;97697.72;;;29.50;100.00
12801;BME280;6464;42.494;27.470;2023-08-06T09:22:13;97677.00;;;29.30;100.00
12801;BME280;6464;42.494;27.470;2023-08-06T09:24:41;97660.72;;;29.55;100.00
12801;BME280;6464;42.494;27.470;2023-08-06T09:27:11;97674.22;;;29.62;100.00
12801;BME280;6464;42.494;27.470;2023-08-06T09:29:40;97687.50;;;29.70;100.00
12801;BME280;6464;42.494;27.470;2023-08-06T09:32:08;97712.13;;;29.75;100.00
12801;BME280;6464;42.494;27.470;2023-08-06T09:34:38;97749.81;;;29.65;100.00
12801;BME280;6464;42.494;27.470;2023-08-06T09:37:06;97778.53;;;29.79;100.00
12801;BME280;6464;42.494;27.470;2023-08-06T09:39:35;97793.41;;;30.75;100.00
12801;BME280;6464;42.494;27.470;2023-08-06T09:42:02;97812.34;;;31.00;100.00
12801;BME280;6464;42.494;27.470;2023-08-06T09:44:31;97791.66;;;31.41;100.00
12801;BME280;6464;42.494;27.470;2023-08-06T09:47:00;97762.00;;;32.10;100.00
12801;BME280;6464;42.494;27.470;2023-08-06T09:49:28;97772.78;;;32.28;100.00
12801;BME280;6464;42.494;27.470;2023-08-06T09:52:03;97786.31;;;32.46;100.00
12801;BME280;6464;42.494;27.470;2023-08-06T09:54:32;97840.69;;;33.45;100.00
12801;BME280;6464;42.494;27.470;2023-08-06T09:57:03;97857.94;;;33.06;100.00
12801;BME280;6464;42.494;27.470;2023-08-06T09:59:30;97792.41;;;33.06;100.00
12801;BME280;6464;42.494;27.470;2023-08-06T10:01:58;97835.66;;;33.25;100.00
12801;BME280;6464;42.494;27.470;2023-08-06T10:04:26;97868.34;;;33.49;100.00
12801;BME280;6464;42.494;27.470;2023-08-06T10:06:56;97849.28;;;33.37;100.00
12801;BME280;6464;42.494;27.470;2023-08-06T10:09:26;97795.16;;;33.06;100.00
12801;BME280;6464;42.494;27.470;2023-08-06T10:11:53;97871.41;;;33.81;100.00
12801;BME280;6464;42.494;27.470;2023-08-06T10:14:23;97953.28;;;34.89;100.00
12801;BME280;6464;42.494;27.470;2023-08-06T10:16:51;97963.84;;;34.63;100.00
12801;BME280;6464;42.494;27.470;2023-08-06T10:19:19;97867.75;;;33.18;100.00
12801;BME280;6464;42.494;27.470;2023-08-06T10:22:08;97676.56;;;31.81;100.00
12801;BME280;6464;42.494;27.470;2023-08-06T10:24:47;97595.53;;;31.99;100.00
12801;BME280;6464;42.494;27.470;2023-08-06T10:27:19;97508.41;;;32.05;100.00
12801;BME280;6464;42.494;27.470;2023-08-06T10:29:46;97614.97;;;33.06;100.00
12801;BME280;6464;42.494;27.470;2023-08-06T10:32:14;97665.03;;;32.94;100.00
12801;BME280;6464;42.494;27.470;2023-08-06T10:35:01;97694.13;;;32.60;100.00
12801;BME280;6464;42.494;27.470;2023-08-06T10:37:35;97608.28;;;32.96;100.00
12801;BME280;6464;42.494;27.470;2023-08-06T10:40:06;97704.78;;;33.53;100.00
12801;BME280;6464;42.494;27.470;2023-08-06T10:42:34;97697.31;;;32.86;100.00
12801;BME280;6464;42.494;27.470;2023-08-06T10:45:14;97562.25;;;32.26;100.00
12801;BME280;6464;42.494;27.470;2023-08-06T10:47:42;97552.41;;;31.44;100.00
12801;BME280;6464;42.494;27.470;2023-08-06T10:50:11;97576.50;;;30.40;100.00
12801;BME280;6464;42.494;27.470;2023-08-06T10:52:38;97711.97;;;28.82;100.00
12801;BME280;6464;42.494;27.470;2023-08-06T10:55:07;97785.84;;;26.65;100.00
12801;BME280;6464;42.494;27.470;2023-08-06T10:57:35;97885.03;;;24.57;100.00
12801;BME280;6464;42.494;27.470;2023-08-06T11:00:04;97836.59;;;24.19;100.00
12801;BME280;6464;42.494;27.470;2023-08-06T11:02:34;97765.84;;;24.55;100.00
12801;BME280;6464;42.494;27.470;2023-08-06T11:05:06;97791.13;;;24.90;100.00
12801;BME280;6464;42.494;27.470;2023-08-06T11:07:33;97766.41;;;26.42;100.00
12801;BME280;6464;42.494;27.470;2023-08-06T11:10:02;97834.06;;;26.61;100.00
12801;BME280;6464;42.494;27.470;2023-08-06T11:12:30;97805.22;;;27.63;100.00
12801;BME280;6464;42.494;27.470;2023-08-06T11:14:57;97955.00;;;28.83;100.00
12801;BME280;6464;42.494;27.470;2023-08-06T11:17:24;97871.88;;;28.30;100.00
12801;BME280;6464;42.494;27.470;2023-08-06T11:19:52;97835.22;;;28.92;100.00
12801;BME280;6464;42.494;27.470;2023-08-06T11:22:20;98183.38;;;29.98;100.00
12801;BME280;6464;42.494;27.470;2023-08-06T11:24:47;98148.19;;;28.85;100.00
12801;BME280;6464;42.494;27.470;2023-08-06T11:27:14;97980.25;;;28.04;100.00
12801;BME280;6464;42.494;27.470;2023-08-06T11:29:42;98066.59;;;29.19;100.00
12801;BME280;6464;42.494;27.470;2023-08-06T11:32:10;98425.38;;;30.82;100.00
12801;BME280;6464;42.494;27.470;2023-08-06T11:34:37;98639.66;;;30.54;100.00
12801;BME280;6464;42.494;27.470;2023-08-06T11:37:05;98429.22;;;30.15;100.00
12801;BME280;6464;42.494;27.470;2023-08-06T11:39:32;98397.41;;;29.56;100.00
12801;BME280;6464;42.494;27.470;2023-08-06T11:42:00;98279.31;;;30.18;100.00
12801;BME280;6464;42.494;27.470;2023-08-06T11:44:29;98462.66;;;30.35;100.00
12801;BME280;6464;42.494;27.470;2023-08-06T11:46:59;98633.19;;;30.68;100.00
12801;BME280;6464;42.494;27.470;2023-08-06T11:49:38;98731.38;;;31.79;100.00
12801;BME280;6464;42.494;27.470;2023-08-06T11:52:10;98947.75;;;32.58;100.00
12801;BME280;6464;42.494;27.470;2023-08-06T11:54:37;98863.00;;;32.26;100.00
12801;BME280;6464;42.494;27.470;2023-08-06T11:57:05;98955.00;;;33.04;100.00
12801;BME280;6464;42.494;27.470;2023-08-06T11:59:33;98988.56;;;33.56;100.00
12801;BME280;6464;42.494;27.470;2023-08-06T12:02:02;98998.94;;;32.75;100.00
12801;BME280;6464;42.494;27.470;2023-08-06T12:04:31;99281.66;;;33.71;100.00
12801;BME280;6464;42.494;27.470;2023-08-06T12:07:05;99312.78;;;33.57;100.00
12801;BME280;6464;42.494;27.470;2023-08-06T12:09:33;99397.34;;;32.42;100.00
12801;BME280;6464;42.494;27.470;2023-08-06T12:12:01;99293.75;;;32.21;100.00
12801;BME280;6464;42.494;27.470;2023-08-06T12:14:29;99483.53;;;32.65;100.00
12801;BME280;6464;42.494;27.470;2023-08-06T12:16:56;99499.16;;;33.25;100.00
12801;BME280;6464;42.494;27.470;2023-08-06T12:19:24;99807.34;;;33.86;100.00
12801;BME280;6464;42.494;27.470;2023-08-06T12:21:51;99804.59;;;34.27;100.00
12801;BME280;6464;42.494;27.470;2023-08-06T12:24:18;99786.44;;;33.72;100.00
12801;BME280;6464;42.494;27.470;2023-08-06T12:26:45;99730.84;;;33.99;100.00
12801;BME280;6464;42.494;27.470;2023-08-06T12:29:12;99864.13;;;35.61;100.00
12801;BME280;6464;42.494;27.470;2023-08-06T12:31:39;99918.56;;;35.77;100.00
12801;BME280;6464;42.494;27.470;2023-08-06T12:34:05;100020.34;;;36.02;100.00
12801;BME280;6464;42.494;27.470;2023-08-06T12:36:34;99998.13;;;36.11;100.00
12801;BME280;6464;42.494;27.470;2023-08-06T12:39:01;100083.25;;;36.44;100.00
12801;BME280;6464;42.494;27.470;2023-08-06T12:41:28;99951.06;;;35.54;100.00
12801;BME280;6464;42.494;27.470;2023-08-06T12:43:55;99927.81;;;35.37;100.00
12801;BME280;6464;42.494;27.470;2023-08-06T12:46:22;100000.03;;;35.90;100.00
12801;BME280;6464;42.494;27.470;2023-08-06T12:48:49;99978.69;;;35.52;100.00
12801;BME280;6464;42.494;27.470;2023-08-06T12:51:16;99995.56;;;35.49;100.00
12801;BME280;6464;42.494;27.470;2023-08-06T12:53:44;100077.31;;;36.40;100.00
12801;BME280;6464;42.494;27.470;2023-08-06T12:56:11;100080.63;;;36.89;100.00
12801;BME280;6464;42.494;27.470;2023-08-06T12:58:38;100030.47;;;36.09;100.00
12801;BME280;6464;42.494;27.470;2023-08-06T13:01:05;100039.31;;;36.57;100.00
12801;BME280;6464;42.494;27.470;2023-08-06T13:03:32;99991.16;;;36.41;100.00
12801;BME280;6464;42.494;27.470;2023-08-06T13:05:59;100013.53;;;36.45;100.00
12801;BME280;6464;42.494;27.470;2023-08-06T13:08:26;99937.06;;;36.42;100.00
12801;BME280;6464;42.494;27.470;2023-08-06T13:10:54;99861.78;;;36.04;100.00
12801;BME280;6464;42.494;27.470;2023-08-06T13:13:21;99880.97;;;35.91;100.00
12801;BME280;6464;42.494;27.470;2023-08-06T13:15:48;99765.44;;;35.28;100.00
12801;BME280;6464;42.494;27.470;2023-08-06T13:18:15;99765.19;;;35.63;100.00
12801;BME280;6464;42.494;27.470;2023-08-06T13:20:42;99761.56;;;35.75;100.00
12801;BME280;6464;42.494;27.470;2023-08-06T13:23:09;99699.59;;;35.61;100.00
12801;BME280;6464;42.494;27.470;2023-08-06T13:25:36;99494.44;;;35.45;100.00
12801;BME280;6464;42.494;27.470;2023-08-06T13:28:05;99429.66;;;35.50;100.00
12801;BME280;6464;42.494;27.470;2023-08-06T13:30:32;99496.47;;;35.88;100.00
12801;BME280;6464;42.494;27.470;2023-08-06T13:33:00;99567.13;;;35.61;100.00
12801;BME280;6464;42.494;27.470;2023-08-06T13:35:30;99681.81;;;35.77;100.00
12801;BME280;6464;42.494;27.470;2023-08-06T13:37:56;99660.75;;;35.71;100.00
12801;BME280;6464;42.494;27.470;2023-08-06T13:40:23;99805.03;;;35.72;100.00
12801;BME280;6464;42.494;27.470;2023-08-06T13:42:50;99836.69;;;35.94;100.00
12801;BME280;6464;42.494;27.470;2023-08-06T13:45:18;99780.09;;;35.93;100.00
12801;BME280;6464;42.494;27.470;2023-08-06T13:47:45;99809.22;;;35.88;100.00
12801;BME280;6464;42.494;27.470;2023-08-06T13:50:13;99811.31;;;36.12;100.00
12801;BME280;6464;42.494;27.470;2023-08-06T13:52:40;99797.38;;;36.07;100.00
12801;BME280;6464;42.494;27.470;2023-08-06T13:55:07;99796.97;;;36.03;100.00
12801;BME280;6464;42.494;27.470;2023-08-06T13:57:34;99797.50;;;36.32;100.00
12801;BME280;6464;42.494;27.470;2023-08-06T14:00:02;99825.72;;;35.94;100.00
12801;BME280;6464;42.494;27.470;2023-08-06T14:02:30;99638.25;;;35.42;100.00
12801;BME280;6464;42.494;27.470;2023-08-06T14:04:57;99706.00;;;35.02;100.00
12801;BME280;6464;42.494;27.470;2023-08-06T14:07:24;99699.84;;;35.33;100.00
12801;BME280;6464;42.494;27.470;2023-08-06T14:09:51;99744.31;;;35.42;100.00
12801;BME280;6464;42.494;27.470;2023-08-06T14:12:18;99722.84;;;35.25;100.00
12801;BME280;6464;42.494;27.470;2023-08-06T14:14:45;99814.75;;;35.68;100.00
12801;BME280;6464;42.494;27.470;2023-08-06T14:17:12;99881.00;;;35.51;100.00
12801;BME280;6464;42.494;27.470;2023-08-06T14:19:40;99878.03;;;35.33;100.00
12801;BME280;6464;42.494;27.470;2023-08-06T14:22:07;99894.94;;;35.57;100.00
12801;BME280;6464;42.494;27.470;2023-08-06T14:24:34;99916.88;;;35.63;100.00
12801;BME280;6464;42.494;27.470;2023-08-06T14:27:03;99822.34;;;35.13;100.00
12801;BME280;6464;42.494;27.470;2023-08-06T14:29:31;99853.78;;;35.30;100.00
12801;BME280;6464;42.494;27.470;2023-08-06T14:31:58;99798.31;;;35.08;100.00
12801;BME280;6464;42.494;27.470;2023-08-06T14:34:25;99708.06;;;34.67;100.00
12801;BME280;6464;42.494;27.470;2023-08-06T14:36:54;99768.81;;;35.17;100.00
12801;BME280;6464;42.494;27.470;2023-08-06T14:39:21;99760.16;;;35.26;100.00
12801;BME280;6464;42.494;27.470;2023-08-06T14:41:48;99737.00;;;35.02;100.00
12801;BME280;6464;42.494;27.470;2023-08-06T14:44:15;99715.06;;;35.22;100.00
12801;BME280;6464;42.494;27.470;2023-08-06T14:46:42;99723.28;;;35.16;100.00
12801;BME280;6464;42.494;27.470;2023-08-06T14:49:08;99622.94;;;34.42;100.00
12801;BME280;6464;42.494;27.470;2023-08-06T14:51:35;99660.91;;;35.11;100.00
12801;BME280;6464;42.494;27.470;2023-08-06T14:54:05;99769.47;;;35.45;100.00
12801;BME280;6464;42.494;27.470;2023-08-06T14:56:32;99697.75;;;34.89;100.00
12801;BME280;6464;42.494;27.470;2023-08-06T14:58:59;99700.69;;;34.81;100.00
12801;BME280;6464;42.494;27.470;2023-08-06T15:01:26;99684.94;;;35.02;100.00
12801;BME280;6464;42.494;27.470;2023-08-06T15:03:53;99678.59;;;34.75;100.00
12801;BME280;6464;42.494;27.470;2023-08-06T15:06:20;99634.72;;;34.42;100.00
12801;BME280;6464;42.494;27.470;2023-08-06T15:08:47;99642.78;;;34.50;100.00
12801;BME280;6464;42.494;27.470;2023-08-06T15:11:15;99665.34;;;34.53;100.00
12801;BME280;6464;42.494;27.470;2023-08-06T15:13:42;99595.81;;;34.54;100.00
12801;BME280;6464;42.494;27.470;2023-08-06T15:16:09;99616.22;;;34.71;100.00
12801;BME280;6464;42.494;27.470;2023-08-06T15:18:36;99661.50;;;34.47;100.00
12801;BME280;6464;42.494;27.470;2023-08-06T15:21:03;99688.69;;;34.48;100.00
12801;BME280;6464;42.494;27.470;2023-08-06T15:23:30;99646.53;;;34.36;100.00
12801;BME280;6464;42.494;27.470;2023-08-06T15:25:57;99626.72;;;34.14;100.00
12801;BME280;6464;42.494;27.470;2023-08-06T15:28:25;99583.47;;;33.76;100.00
12801;BME280;6464;42.494;27.470;2023-08-06T15:30:52;99705.69;;;33.76;100.00
12801;BME280;6464;42.494;27.470;2023-08-06T15:33:21;99723.03;;;33.96;100.00
12801;BME280;6464;42.494;27.470;2023-08-06T15:35:48;99725.78;;;33.27;100.00
12801;BME280;6464;42.494;27.470;2023-08-06T15:38:15;99581.22;;;32.41;100.00
12801;BME280;6464;42.494;27.470;2023-08-06T15:40:42;99310.97;;;31.59;100.00
12801;BME280;6464;42.494;27.470;2023-08-06T15:43:10;99123.00;;;31.03;100.00
12801;BME280;6464;42.494;27.470;2023-08-06T15:45:38;99106.78;;;30.88;100.00
12801;BME280;6464;42.494;27.470;2023-08-06T15:48:05;99007.03;;;30.74;100.00
12801;BME280;6464;42.494;27.470;2023-08-06T15:50:36;99053.75;;;31.18;100.00
12801;BME280;6464;42.494;27.470;2023-08-06T15:53:03;99149.16;;;31.66;100.00
12801;BME280;6464;42.494;27.470;2023-08-06T15:55:29;99152.69;;;31.26;100.00
12801;BME280;6464;42.494;27.470;2023-08-06T15:57:58;99165.72;;;31.02;100.00
12801;BME280;6464;42.494;27.470;2023-08-06T16:00:24;99072.78;;;30.77;100.00
12801;BME280;6464;42.494;27.470;2023-08-06T16:02:53;99095.91;;;30.66;100.00
12801;BME280;6464;42.494;27.470;2023-08-06T16:05:20;99001.03;;;30.29;100.00
12801;BME280;6464;42.494;27.470;2023-08-06T16:07:49;99010.28;;;30.34;100.00
12801;BME280;6464;42.494;27.470;2023-08-06T16:10:16;99037.34;;;30.21;100.00
12801;BME280;6464;42.494;27.470;2023-08-06T16:12:43;99076.47;;;30.20;100.00
12801;BME280;6464;42.494;27.470;2023-08-06T16:15:10;99062.59;;;29.93;100.00
12801;BME280;6464;42.494;27.470;2023-08-06T16:17:38;99050.09;;;29.99;100.00
12801;BME280;6464;42.494;27.470;2023-08-06T16:20:08;99042.41;;;30.03;100.00
12801;BME280;6464;42.494;27.470;2023-08-06T16:22:36;98996.97;;;29.96;100.00
12801;BME280;6464;42.494;27.470;2023-08-06T16:25:03;99039.59;;;29.96;100.00
12801;BME280;6464;42.494;27.470;2023-08-06T16:27:30;99020.38;;;29.98;100.00
12801;BME280;6464;42.494;27.470;2023-08-06T16:29:57;99104.78;;;29.89;100.00
12801;BME280;6464;42.494;27.470;2023-08-06T16:32:25;99131.25;;;30.02;100.00
12801;BME280;6464;42.494;27.470;2023-08-06T16:34:52;99067.25;;;30.00;100.00
12801;BME280;6464;42.494;27.470;2023-08-06T16:37:20;98926.25;;;29.90;100.00
12801;BME280;6464;42.494;27.470;2023-08-06T16:39:48;98933.31;;;29.84;100.00
12801;BME280;6464;42.494;27.470;2023-08-06T16:42:15;98913.38;;;29.77;100.00
12801;BME280;6464;42.494;27.470;2023-08-06T16:44:42;98859.47;;;29.31;100.00
12801;BME280;6464;42.494;27.470;2023-08-06T16:47:09;98926.88;;;29.49;100.00
12801;BME280;6464;42.494;27.470;2023-08-06T16:49:36;98995.22;;;29.53;100.00
12801;BME280;6464;42.494;27.470;2023-08-06T16:52:03;98978.03;;;29.45;100.00
12801;BME280;6464;42.494;27.470;2023-08-06T16:54:31;98963.41;;;29.47;100.00
12801;BME280;6464;42.494;27.470;2023-08-06T16:56:58;99004.72;;;29.42;100.00
12801;BME280;6464;42.494;27.470;2023-08-06T16:59:26;99002.66;;;29.44;100.00
12801;BME280;6464;42.494;27.470;2023-08-06T17:01:53;98996.97;;;29.39;100.00
12801;BME280;6464;42.494;27.470;2023-08-06T17:04:20;98936.91;;;29.27;100.00
12801;BME280;6464;42.494;27.470;2023-08-06T17:06:47;98988.69;;;29.26;100.00
12801;BME280;6464;42.494;27.470;2023-08-06T17:09:14;98976.78;;;29.27;100.00
12801;BME280;6464;42.494;27.470;2023-08-06T17:11:42;99031.81;;;29.35;100.00
12801;BME280;6464;42.494;27.470;2023-08-06T17:14:10;98996.44;;;29.14;100.00